Wilkes Barre Scranton International Airport
KAVP : now visible

Airfield :











YOU CAN JOIN US ON...

 
LOGIN :

Register | Disclaimer

   EN    FR    IT 

 









Legend :    VFR   Marginal VFR   IFR   Intensive IFR   Very Intensive IFR
Visi :
Ceiling :
>= 8 km
>= 3000ft
5 to 8 km
1000 to 3000 ft
1500m to 5 km
500 to 1000 ft
800 to 1500m
200 to 500 ft
< 800m
< 200 ft
Symbols :   Thunderstorms  Fog  Heavy snow  Heavy precipitations  Wind > 20 kt







- Airport Elevation : 962 ft
- IATA code : AVP


KAVP - Wilkes Barre Scranton International

CURRENT METAR :
  • 191654Z 18011G20KT 10SM BKN037 OVC046 22/14 A2972 RMK AO2 SLP057 T02220139

EXPIRED METARs :
  • 191554Z 19009G17KT 10SM FEW033 BKN042 OVC110 22/14 A2973 RMK AO2 SLP058 T02170139
  • 191454Z 18012G18KT 150V220 10SM OVC035 22/14 A2973 RMK AO2 SLP058 T02220139 50003

TAF KAVP
Valid from the 19 at 16:00 until the 20 at 12:00 UTC


191613Z 1916/2012 20010G18KT P6SM SCT028 BKN040
FM192100 20009G15KT 5SM -SHRA BR OVC022
TEMPO 2002/2006 1SM -TSRA BR BKN030CB OVC040
FM200900 15008KT 3SM -SHRA BR OVC015
KZNY FIR / North America



MET'MAP, your aeronautical weather chart ! - Copyright ORBIFLY December 2007 - Disclaimer

ORBIFLY MET'MAP TEAM :

Programming & Development : Alexandra Zaïnal
Concept & Development : Baudouin d'Aumeries
Co-Development & Prog : Marc-Olivier Méhu
Technical & hardware support : Manuel Goepfert

Contact : metmap@orbifly.com




SOURCES & CREDITS :

   NOAA       Earth
Advisory